Bridgetown, Barbados

9:00 PM AST op 25 februari 2017 (GMT -0400)
Grantley Adams International | | Change Station

Hoogte 184 ft 13.07 °N, 59.48 °W | Updated 1 hour ago

Mostly Cloudy
Merendeels bewolkt
79 °F
Voelt als 79 °F
N
16
Wind Variabel Wind van oost

Vandaag
Hoog -- | Laag -- °F
--% Kans op neerslag
Gisteren
Hoog -- | Laag -- °F
Precip. -- inches
Druk 29.95 inches
Zicht 6.2 mijlen
Wolken Gering 1600 ft
Licht bewolkt 8000 ft
Merendeels bewolkt 26000 ft
Dauwpunt 73 °F
Vochtigheid 83%
Neerslag 0.00 inches
Dikte sneeuw Niet beschikbaar.
6:15 AM 6:06 PM
Afnemende halvemaan, 0% visible
METAR TBPB 260000Z 08014KT 9999 FEW016 SCT080 BKN260 26/23 Q1014 NOSIG
Druk 29.95 inches
Zicht 6.2 mijlen
Wolken Gering 1600 ft
Licht bewolkt 8000 ft
Merendeels bewolkt 26000 ft
Dauwpunt 73 °F
Vochtigheid 83%
Neerslag 0.00 inches
Dikte sneeuw Niet beschikbaar.
6:15 AM 6:06 PM
Afnemende halvemaan, 0% visible
METAR TBPB 260000Z 08014KT 9999 FEW016 SCT080 BKN260 26/23 Q1014 NOSIG

Get Your Daily Forecast Email!

Thanks for signing up!

Be on the lookout for a verification email in your inbox.

You'll start receiving the daily forecast at 8 AM.

×

10-Day Weather Forecast

No radar image for this location.
×

Almanac

Astronomie

Feb. 25, 2017 Opkomst Ondergang
Werkelijke tijd
Burgerlijke schemering
Nautische schemering
Astronomische schemering
Maan
Golflengte van het zichtbare licht
Daglengte
Tomorrow will be .
, % of the Moon is Illuminated

Extremen vandaag

Country Highs Country Lows

Community

WunderPhotos

Upload Photos

1,962,540 foto’s ge-upload!

WunderBlog® & News

Nearby

Luchtkwaliteit

  Luchtkwaliteit LK-index Verontreinigende stof
Not available.

Dikte sneeuw

Station Depth Geometrische hoogte

Aardbevingen

Stad Distance Mag. Time & Date
Minimum magnitude displayed is 2.5.

Watertemperatuur langs de kust

Plaats Temperatuur

Stations

Nabije weerstations

Locatie station Temp. Gevoelstemperatuur Dauwpunt Vochtigheid Wind Precip. Hoogte Geactualiseerd Type